sensor_id;sensor_type;location;lat;lon;timestamp;P1;durP1;ratioP1;P2;durP2;ratioP2
19167;SDS011;9716;53.114;18.040;2023-02-28T00:01:33;37.63;;;13.87;;
19167;SDS011;9716;53.114;18.040;2023-02-28T00:04:02;35.67;;;13.00;;
19167;SDS011;9716;53.114;18.040;2023-02-28T00:06:31;46.13;;;16.23;;
19167;SDS011;9716;53.114;18.040;2023-02-28T00:09:00;46.13;;;16.30;;
19167;SDS011;9716;53.114;18.040;2023-02-28T00:11:29;60.37;;;18.60;;
19167;SDS011;9716;53.114;18.040;2023-02-28T00:13:57;55.57;;;16.10;;
19167;SDS011;9716;53.114;18.040;2023-02-28T00:16:26;47.87;;;17.00;;
19167;SDS011;9716;53.114;18.040;2023-02-28T00:18:55;39.57;;;17.50;;
19167;SDS011;9716;53.114;18.040;2023-02-28T00:21:23;42.87;;;17.77;;
19167;SDS011;9716;53.114;18.040;2023-02-28T00:23:53;49.60;;;19.57;;
19167;SDS011;9716;53.114;18.040;2023-02-28T00:26:21;53.87;;;19.00;;
19167;SDS011;9716;53.114;18.040;2023-02-28T00:28:51;51.37;;;19.77;;
19167;SDS011;9716;53.114;18.040;2023-02-28T00:31:20;50.90;;;21.17;;
19167;SDS011;9716;53.114;18.040;2023-02-28T00:33:48;63.53;;;21.77;;
19167;SDS011;9716;53.114;18.040;2023-02-28T00:36:18;68.17;;;22.93;;
19167;SDS011;9716;53.114;18.040;2023-02-28T00:38:46;61.03;;;22.43;;
19167;SDS011;9716;53.114;18.040;2023-02-28T00:41:16;55.07;;;22.33;;
19167;SDS011;9716;53.114;18.040;2023-02-28T00:43:44;68.47;;;22.57;;
19167;SDS011;9716;53.114;18.040;2023-02-28T00:46:13;50.77;;;22.37;;
19167;SDS011;9716;53.114;18.040;2023-02-28T00:48:41;77.07;;;24.77;;
19167;SDS011;9716;53.114;18.040;2023-02-28T00:51:09;71.73;;;24.73;;
19167;SDS011;9716;53.114;18.040;2023-02-28T00:53:38;66.17;;;24.50;;
19167;SDS011;9716;53.114;18.040;2023-02-28T00:56:06;62.20;;;24.50;;
19167;SDS011;9716;53.114;18.040;2023-02-28T00:58:36;67.73;;;25.57;;
19167;SDS011;9716;53.114;18.040;2023-02-28T01:01:05;67.00;;;25.87;;
19167;SDS011;9716;53.114;18.040;2023-02-28T01:03:33;70.67;;;24.37;;
19167;SDS011;9716;53.114;18.040;2023-02-28T01:06:02;65.27;;;25.10;;
19167;SDS011;9716;53.114;18.040;2023-02-28T01:08:31;66.63;;;23.53;;
19167;SDS011;9716;53.114;18.040;2023-02-28T01:11:06;66.33;;;25.23;;
19167;SDS011;9716;53.114;18.040;2023-02-28T01:13:37;69.60;;;26.00;;
19167;SDS011;9716;53.114;18.040;2023-02-28T01:16:05;67.57;;;26.73;;
19167;SDS011;9716;53.114;18.040;2023-02-28T01:18:35;68.40;;;24.97;;
19167;SDS011;9716;53.114;18.040;2023-02-28T01:21:04;79.37;;;27.93;;
19167;SDS011;9716;53.114;18.040;2023-02-28T01:23:33;71.93;;;23.97;;
19167;SDS011;9716;53.114;18.040;2023-02-28T01:26:05;70.73;;;25.13;;
19167;SDS011;9716;53.114;18.040;2023-02-28T01:28:34;78.27;;;28.07;;
19167;SDS011;9716;53.114;18.040;2023-02-28T01:31:04;93.47;;;28.37;;
19167;SDS011;9716;53.114;18.040;2023-02-28T01:33:33;83.47;;;28.50;;
19167;SDS011;9716;53.114;18.040;2023-02-28T01:36:02;100.97;;;27.50;;
19167;SDS011;9716;53.114;18.040;2023-02-28T01:38:32;90.33;;;30.17;;
19167;SDS011;9716;53.114;18.040;2023-02-28T01:41:01;67.93;;;28.17;;
19167;SDS011;9716;53.114;18.040;2023-02-28T01:43:31;84.57;;;27.40;;
19167;SDS011;9716;53.114;18.040;2023-02-28T01:46:20;74.60;;;28.50;;
19167;SDS011;9716;53.114;18.040;2023-02-28T01:48:50;82.93;;;29.40;;
19167;SDS011;9716;53.114;18.040;2023-02-28T01:51:22;83.70;;;29.60;;
19167;SDS011;9716;53.114;18.040;2023-02-28T01:53:57;80.77;;;29.80;;
19167;SDS011;9716;53.114;18.040;2023-02-28T01:56:30;89.47;;;29.37;;
19167;SDS011;9716;53.114;18.040;2023-02-28T01:59:02;85.80;;;31.20;;
19167;SDS011;9716;53.114;18.040;2023-02-28T02:01:33;74.87;;;27.50;;
19167;SDS011;9716;53.114;18.040;2023-02-28T02:04:02;82.97;;;29.50;;
19167;SDS011;9716;53.114;18.040;2023-02-28T02:06:34;89.53;;;30.57;;
19167;SDS011;9716;53.114;18.040;2023-02-28T02:09:05;86.33;;;31.03;;
19167;SDS011;9716;53.114;18.040;2023-02-28T02:11:33;83.90;;;28.77;;
19167;SDS011;9716;53.114;18.040;2023-02-28T02:14:10;74.40;;;30.00;;
19167;SDS011;9716;53.114;18.040;2023-02-28T02:17:04;72.30;;;28.23;;
19167;SDS011;9716;53.114;18.040;2023-02-28T02:19:51;71.43;;;28.13;;
19167;SDS011;9716;53.114;18.040;2023-02-28T02:26:06;80.97;;;26.63;;
19167;SDS011;9716;53.114;18.040;2023-02-28T02:29:00;78.20;;;29.47;;
19167;SDS011;9716;53.114;18.040;2023-02-28T02:31:56;81.03;;;27.30;;
19167;SDS011;9716;53.114;18.040;2023-02-28T02:34:45;80.80;;;28.00;;
19167;SDS011;9716;53.114;18.040;2023-02-28T02:37:32;79.40;;;27.17;;
19167;SDS011;9716;53.114;18.040;2023-02-28T02:40:09;77.70;;;28.03;;
19167;SDS011;9716;53.114;18.040;2023-02-28T02:42:49;60.93;;;25.00;;
19167;SDS011;9716;53.114;18.040;2023-02-28T02:45:24;67.57;;;27.27;;
19167;SDS011;9716;53.114;18.040;2023-02-28T02:47:56;68.00;;;27.53;;
19167;SDS011;9716;53.114;18.040;2023-02-28T02:50:29;60.57;;;24.97;;
19167;SDS011;9716;53.114;18.040;2023-02-28T02:53:01;64.33;;;26.17;;
19167;SDS011;9716;53.114;18.040;2023-02-28T02:55:33;64.30;;;26.00;;
19167;SDS011;9716;53.114;18.040;2023-02-28T02:58:06;63.43;;;25.40;;
19167;SDS011;9716;53.114;18.040;2023-02-28T03:00:39;66.50;;;27.50;;
19167;SDS011;9716;53.114;18.040;2023-02-28T03:03:11;70.37;;;25.93;;
19167;SDS011;9716;53.114;18.040;2023-02-28T03:05:43;72.33;;;26.67;;
19167;SDS011;9716;53.114;18.040;2023-02-28T03:08:15;58.73;;;26.23;;
19167;SDS011;9716;53.114;18.040;2023-02-28T03:10:44;72.27;;;25.73;;
19167;SDS011;9716;53.114;18.040;2023-02-28T03:13:20;68.13;;;23.87;;
19167;SDS011;9716;53.114;18.040;2023-02-28T03:16:22;61.70;;;24.70;;
19167;SDS011;9716;53.114;18.040;2023-02-28T03:19:15;61.07;;;23.87;;
19167;SDS011;9716;53.114;18.040;2023-02-28T03:21:57;62.30;;;24.40;;
19167;SDS011;9716;53.114;18.040;2023-02-28T03:24:38;66.43;;;24.50;;
19167;SDS011;9716;53.114;18.040;2023-02-28T03:27:11;63.90;;;24.73;;
19167;SDS011;9716;53.114;18.040;2023-02-28T03:29:47;56.40;;;22.90;;
19167;SDS011;9716;53.114;18.040;2023-02-28T03:32:24;50.17;;;20.20;;
19167;SDS011;9716;53.114;18.040;2023-02-28T03:34:58;60.43;;;21.97;;
19167;SDS011;9716;53.114;18.040;2023-02-28T03:37:33;60.57;;;20.37;;
19167;SDS011;9716;53.114;18.040;2023-02-28T03:40:07;58.63;;;22.17;;
19167;SDS011;9716;53.114;18.040;2023-02-28T03:42:39;51.33;;;21.77;;
19167;SDS011;9716;53.114;18.040;2023-02-28T03:45:11;42.93;;;21.17;;
19167;SDS011;9716;53.114;18.040;2023-02-28T03:47:44;44.47;;;21.00;;
19167;SDS011;9716;53.114;18.040;2023-02-28T03:50:16;54.27;;;21.13;;
19167;SDS011;9716;53.114;18.040;2023-02-28T03:52:51;48.87;;;20.70;;
19167;SDS011;9716;53.114;18.040;2023-02-28T03:55:28;57.37;;;19.37;;
19167;SDS011;9716;53.114;18.040;2023-02-28T03:58:01;46.97;;;21.67;;
19167;SDS011;9716;53.114;18.040;2023-02-28T04:00:39;56.37;;;20.70;;
19167;SDS011;9716;53.114;18.040;2023-02-28T04:03:12;47.63;;;19.80;;
19167;SDS011;9716;53.114;18.040;2023-02-28T04:05:46;48.90;;;21.60;;
19167;SDS011;9716;53.114;18.040;2023-02-28T04:08:19;58.47;;;18.87;;
19167;SDS011;9716;53.114;18.040;2023-02-28T04:10:51;50.90;;;21.80;;
19167;SDS011;9716;53.114;18.040;2023-02-28T04:13:24;46.07;;;18.60;;
19167;SDS011;9716;53.114;18.040;2023-02-28T04:15:53;47.77;;;18.93;;
19167;SDS011;9716;53.114;18.040;2023-02-28T04:18:21;46.87;;;18.17;;
19167;SDS011;9716;53.114;18.040;2023-02-28T04:20:50;55.37;;;20.43;;
19167;SDS011;9716;53.114;18.040;2023-02-28T04:23:20;55.03;;;20.77;;
19167;SDS011;9716;53.114;18.040;2023-02-28T04:25:48;61.83;;;19.97;;
19167;SDS011;9716;53.114;18.040;2023-02-28T04:28:17;48.93;;;19.17;;
19167;SDS011;9716;53.114;18.040;2023-02-28T04:30:46;51.67;;;19.13;;
19167;SDS011;9716;53.114;18.040;2023-02-28T04:33:14;55.97;;;19.83;;
19167;SDS011;9716;53.114;18.040;2023-02-28T04:35:42;42.47;;;18.50;;
19167;SDS011;9716;53.114;18.040;2023-02-28T04:38:11;41.13;;;18.03;;
19167;SDS011;9716;53.114;18.040;2023-02-28T04:40:41;37.10;;;16.63;;
19167;SDS011;9716;53.114;18.040;2023-02-28T04:43:09;44.60;;;18.77;;
19167;SDS011;9716;53.114;18.040;2023-02-28T04:45:37;34.80;;;15.17;;
19167;SDS011;9716;53.114;18.040;2023-02-28T04:48:05;46.63;;;16.67;;
19167;SDS011;9716;53.114;18.040;2023-02-28T04:50:34;44.77;;;17.97;;
19167;SDS011;9716;53.114;18.040;2023-02-28T04:53:02;45.77;;;17.30;;
19167;SDS011;9716;53.114;18.040;2023-02-28T04:55:31;48.23;;;16.07;;
19167;SDS011;9716;53.114;18.040;2023-02-28T04:58:01;41.03;;;16.47;;
19167;SDS011;9716;53.114;18.040;2023-02-28T05:00:29;39.33;;;16.83;;
19167;SDS011;9716;53.114;18.040;2023-02-28T05:02:57;41.90;;;16.20;;
19167;SDS011;9716;53.114;18.040;2023-02-28T05:05:26;48.63;;;17.63;;
19167;SDS011;9716;53.114;18.040;2023-02-28T05:07:54;42.30;;;15.23;;
19167;SDS011;9716;53.114;18.040;2023-02-28T05:10:23;37.20;;;15.77;;
19167;SDS011;9716;53.114;18.040;2023-02-28T05:12:52;32.30;;;15.17;;
19167;SDS011;9716;53.114;18.040;2023-02-28T05:15:22;35.63;;;14.03;;
19167;SDS011;9716;53.114;18.040;2023-02-28T05:17:50;46.57;;;16.27;;
19167;SDS011;9716;53.114;18.040;2023-02-28T05:20:19;28.63;;;13.43;;
19167;SDS011;9716;53.114;18.040;2023-02-28T05:22:49;39.73;;;14.97;;
19167;SDS011;9716;53.114;18.040;2023-02-28T05:25:19;35.17;;;13.43;;
19167;SDS011;9716;53.114;18.040;2023-02-28T05:27:49;34.53;;;13.67;;
19167;SDS011;9716;53.114;18.040;2023-02-28T05:30:18;37.90;;;13.67;;
19167;SDS011;9716;53.114;18.040;2023-02-28T05:32:49;38.43;;;14.27;;
19167;SDS011;9716;53.114;18.040;2023-02-28T05:35:19;35.80;;;13.03;;
19167;SDS011;9716;53.114;18.040;2023-02-28T05:37:47;32.93;;;13.70;;
19167;SDS011;9716;53.114;18.040;2023-02-28T05:40:16;30.60;;;13.57;;
19167;SDS011;9716;53.114;18.040;2023-02-28T05:42:46;33.83;;;13.33;;
19167;SDS011;9716;53.114;18.040;2023-02-28T05:45:15;40.27;;;12.80;;
19167;SDS011;9716;53.114;18.040;2023-02-28T05:47:44;27.10;;;12.80;;
19167;SDS011;9716;53.114;18.040;2023-02-28T05:50:14;26.43;;;11.83;;
19167;SDS011;9716;53.114;18.040;2023-02-28T05:52:42;30.07;;;13.73;;
19167;SDS011;9716;53.114;18.040;2023-02-28T05:55:11;31.77;;;12.80;;
19167;SDS011;9716;53.114;18.040;2023-02-28T05:57:39;32.10;;;10.77;;
19167;SDS011;9716;53.114;18.040;2023-02-28T06:00:12;32.90;;;13.17;;
19167;SDS011;9716;53.114;18.040;2023-02-28T06:02:42;28.77;;;12.83;;
19167;SDS011;9716;53.114;18.040;2023-02-28T06:05:14;39.47;;;14.03;;
19167;SDS011;9716;53.114;18.040;2023-02-28T06:07:43;54.77;;;16.40;;
19167;SDS011;9716;53.114;18.040;2023-02-28T06:10:12;45.10;;;16.63;;
19167;SDS011;9716;53.114;18.040;2023-02-28T06:12:42;42.50;;;16.87;;
19167;SDS011;9716;53.114;18.040;2023-02-28T06:15:11;49.27;;;17.93;;
19167;SDS011;9716;53.114;18.040;2023-02-28T06:17:41;65.03;;;19.83;;
19167;SDS011;9716;53.114;18.040;2023-02-28T06:20:10;65.90;;;19.60;;
19167;SDS011;9716;53.114;18.040;2023-02-28T06:22:41;61.00;;;19.43;;
19167;SDS011;9716;53.114;18.040;2023-02-28T06:25:10;55.87;;;17.93;;
19167;SDS011;9716;53.114;18.040;2023-02-28T06:27:39;57.80;;;20.23;;
19167;SDS011;9716;53.114;18.040;2023-02-28T06:30:08;68.53;;;19.87;;
19167;SDS011;9716;53.114;18.040;2023-02-28T06:32:39;62.43;;;19.53;;
19167;SDS011;9716;53.114;18.040;2023-02-28T06:35:08;62.70;;;22.37;;
19167;SDS011;9716;53.114;18.040;2023-02-28T06:37:37;67.03;;;26.17;;
19167;SDS011;9716;53.114;18.040;2023-02-28T06:40:09;77.03;;;25.10;;
19167;SDS011;9716;53.114;18.040;2023-02-28T06:42:39;76.07;;;25.10;;
19167;SDS011;9716;53.114;18.040;2023-02-28T06:45:08;70.10;;;24.50;;
19167;SDS011;9716;53.114;18.040;2023-02-28T06:47:37;78.27;;;28.23;;
19167;SDS011;9716;53.114;18.040;2023-02-28T06:50:07;80.17;;;25.83;;
19167;SDS011;9716;53.114;18.040;2023-02-28T06:52:37;80.57;;;26.63;;
19167;SDS011;9716;53.114;18.040;2023-02-28T06:55:07;66.23;;;26.43;;
19167;SDS011;9716;53.114;18.040;2023-02-28T06:57:37;78.03;;;26.50;;
19167;SDS011;9716;53.114;18.040;2023-02-28T07:00:07;82.00;;;28.53;;
19167;SDS011;9716;53.114;18.040;2023-02-28T07:02:37;87.73;;;28.27;;
19167;SDS011;9716;53.114;18.040;2023-02-28T07:05:06;78.00;;;23.90;;
19167;SDS011;9716;53.114;18.040;2023-02-28T07:07:35;71.17;;;24.93;;
19167;SDS011;9716;53.114;18.040;2023-02-28T07:10:05;72.07;;;25.23;;
19167;SDS011;9716;53.114;18.040;2023-02-28T07:12:35;61.60;;;24.60;;
19167;SDS011;9716;53.114;18.040;2023-02-28T07:15:04;72.20;;;25.13;;
19167;SDS011;9716;53.114;18.040;2023-02-28T07:17:34;52.77;;;22.83;;
19167;SDS011;9716;53.114;18.040;2023-02-28T07:20:02;58.37;;;25.30;;
19167;SDS011;9716;53.114;18.040;2023-02-28T07:22:31;62.97;;;22.77;;
19167;SDS011;9716;53.114;18.040;2023-02-28T07:25:00;56.40;;;20.03;;
19167;SDS011;9716;53.114;18.040;2023-02-28T07:27:28;54.77;;;24.30;;
19167;SDS011;9716;53.114;18.040;2023-02-28T07:29:58;57.20;;;22.30;;
19167;SDS011;9716;53.114;18.040;2023-02-28T07:32:28;57.97;;;20.90;;
19167;SDS011;9716;53.114;18.040;2023-02-28T07:34:56;59.57;;;22.03;;
19167;SDS011;9716;53.114;18.040;2023-02-28T07:37:25;51.00;;;21.30;;
19167;SDS011;9716;53.114;18.040;2023-02-28T07:39:53;53.60;;;21.83;;
19167;SDS011;9716;53.114;18.040;2023-02-28T07:42:21;51.67;;;20.63;;
19167;SDS011;9716;53.114;18.040;2023-02-28T07:44:50;43.93;;;18.90;;
19167;SDS011;9716;53.114;18.040;2023-02-28T07:47:21;40.23;;;19.63;;
19167;SDS011;9716;53.114;18.040;2023-02-28T07:49:52;48.67;;;18.97;;
19167;SDS011;9716;53.114;18.040;2023-02-28T07:52:20;49.33;;;19.23;;
19167;SDS011;9716;53.114;18.040;2023-02-28T07:54:50;41.10;;;17.00;;
19167;SDS011;9716;53.114;18.040;2023-02-28T07:57:18;40.50;;;18.10;;
19167;SDS011;9716;53.114;18.040;2023-02-28T07:59:47;47.57;;;18.80;;
19167;SDS011;9716;53.114;18.040;2023-02-28T08:02:16;45.63;;;17.37;;
19167;SDS011;9716;53.114;18.040;2023-02-28T08:04:47;40.27;;;17.30;;
19167;SDS011;9716;53.114;18.040;2023-02-28T08:07:17;44.73;;;17.10;;
19167;SDS011;9716;53.114;18.040;2023-02-28T08:09:46;41.77;;;16.67;;
19167;SDS011;9716;53.114;18.040;2023-02-28T08:12:14;45.73;;;16.83;;
19167;SDS011;9716;53.114;18.040;2023-02-28T08:14:43;33.30;;;16.63;;
19167;SDS011;9716;53.114;18.040;2023-02-28T08:17:11;36.30;;;15.67;;
19167;SDS011;9716;53.114;18.040;2023-02-28T08:19:40;44.50;;;15.03;;
19167;SDS011;9716;53.114;18.040;2023-02-28T08:22:09;50.40;;;13.90;;
19167;SDS011;9716;53.114;18.040;2023-02-28T08:24:41;40.43;;;12.80;;
19167;SDS011;9716;53.114;18.040;2023-02-28T08:27:10;28.47;;;14.10;;
19167;SDS011;9716;53.114;18.040;2023-02-28T08:29:40;42.87;;;12.53;;
19167;SDS011;9716;53.114;18.040;2023-02-28T08:32:08;34.63;;;14.33;;
19167;SDS011;9716;53.114;18.040;2023-02-28T08:34:54;28.10;;;13.20;;
19167;SDS011;9716;53.114;18.040;2023-02-28T08:37:24;30.73;;;13.37;;
19167;SDS011;9716;53.114;18.040;2023-02-28T08:39:53;31.00;;;12.30;;
19167;SDS011;9716;53.114;18.040;2023-02-28T08:42:22;30.00;;;12.47;;
19167;SDS011;9716;53.114;18.040;2023-02-28T08:44:51;25.50;;;11.80;;
19167;SDS011;9716;53.114;18.040;2023-02-28T08:47:19;28.50;;;10.83;;
19167;SDS011;9716;53.114;18.040;2023-02-28T08:49:48;16.70;;;7.60;;
19167;SDS011;9716;53.114;18.040;2023-02-28T08:52:16;28.60;;;9.90;;
19167;SDS011;9716;53.114;18.040;2023-02-28T08:54:46;23.20;;;9.80;;
19167;SDS011;9716;53.114;18.040;2023-02-28T08:57:14;19.70;;;9.43;;
19167;SDS011;9716;53.114;18.040;2023-02-28T08:59:43;26.50;;;9.13;;
19167;SDS011;9716;53.114;18.040;2023-02-28T09:02:12;20.33;;;8.27;;
19167;SDS011;9716;53.114;18.040;2023-02-28T09:04:41;18.48;;;8.73;;
19167;SDS011;9716;53.114;18.040;2023-02-28T09:07:12;15.03;;;8.03;;
19167;SDS011;9716;53.114;18.040;2023-02-28T09:09:40;13.43;;;6.53;;
19167;SDS011;9716;53.114;18.040;2023-02-28T09:12:21;14.90;;;7.80;;
19167;SDS011;9716;53.114;18.040;2023-02-28T09:14:51;13.57;;;7.20;;
19167;SDS011;9716;53.114;18.040;2023-02-28T09:17:20;16.58;;;7.00;;
19167;SDS011;9716;53.114;18.040;2023-02-28T09:19:48;19.83;;;7.60;;
19167;SDS011;9716;53.114;18.040;2023-02-28T09:22:17;12.80;;;6.77;;
19167;SDS011;9716;53.114;18.040;2023-02-28T09:24:45;33.93;;;7.80;;
19167;SDS011;9716;53.114;18.040;2023-02-28T09:27:14;13.80;;;7.50;;
19167;SDS011;9716;53.114;18.040;2023-02-28T09:29:44;14.82;;;6.82;;
19167;SDS011;9716;53.114;18.040;2023-02-28T09:32:12;15.97;;;6.80;;
19167;SDS011;9716;53.114;18.040;2023-02-28T09:34:40;18.23;;;7.60;;
19167;SDS011;9716;53.114;18.040;2023-02-28T09:37:09;17.58;;;6.45;;
19167;SDS011;9716;53.114;18.040;2023-02-28T09:39:37;15.57;;;6.18;;
19167;SDS011;9716;53.114;18.040;2023-02-28T09:42:11;14.43;;;5.15;;
19167;SDS011;9716;53.114;18.040;2023-02-28T09:44:50;19.95;;;6.85;;
19167;SDS011;9716;53.114;18.040;2023-02-28T09:47:21;16.17;;;5.63;;
19167;SDS011;9716;53.114;18.040;2023-02-28T09:49:57;17.45;;;6.10;;
19167;SDS011;9716;53.114;18.040;2023-02-28T09:52:31;8.82;;;5.28;;
19167;SDS011;9716;53.114;18.040;2023-02-28T09:55:01;18.17;;;5.95;;
19167;SDS011;9716;53.114;18.040;2023-02-28T09:57:45;11.25;;;5.47;;
19167;SDS011;9716;53.114;18.040;2023-02-28T10:00:17;13.98;;;5.70;;
19167;SDS011;9716;53.114;18.040;2023-02-28T10:02:56;11.80;;;5.38;;
19167;SDS011;9716;53.114;18.040;2023-02-28T10:05:41;12.32;;;5.07;;
19167;SDS011;9716;53.114;18.040;2023-02-28T10:08:16;14.30;;;4.80;;
19167;SDS011;9716;53.114;18.040;2023-02-28T10:10:52;14.45;;;5.90;;
19167;SDS011;9716;53.114;18.040;2023-02-28T10:13:25;19.10;;;6.20;;
19167;SDS011;9716;53.114;18.040;2023-02-28T10:16:02;21.73;;;6.72;;
19167;SDS011;9716;53.114;18.040;2023-02-28T10:18:37;11.57;;;4.50;;
19167;SDS011;9716;53.114;18.040;2023-02-28T10:21:13;19.48;;;5.45;;
19167;SDS011;9716;53.114;18.040;2023-02-28T10:23:47;11.13;;;5.30;;
19167;SDS011;9716;53.114;18.040;2023-02-28T10:26:17;11.98;;;6.03;;
19167;SDS011;9716;53.114;18.040;2023-02-28T10:28:46;9.27;;;4.57;;
19167;SDS011;9716;53.114;18.040;2023-02-28T10:31:17;12.18;;;4.70;;
19167;SDS011;9716;53.114;18.040;2023-02-28T10:33:48;8.47;;;4.50;;
19167;SDS011;9716;53.114;18.040;2023-02-28T10:36:18;10.40;;;5.22;;
19167;SDS011;9716;53.114;18.040;2023-02-28T10:38:48;10.73;;;4.43;;
19167;SDS011;9716;53.114;18.040;2023-02-28T10:41:26;9.57;;;4.88;;
19167;SDS011;9716;53.114;18.040;2023-02-28T10:44:12;11.25;;;4.60;;
19167;SDS011;9716;53.114;18.040;2023-02-28T10:46:44;7.88;;;4.13;;
19167;SDS011;9716;53.114;18.040;2023-02-28T10:49:14;13.57;;;4.85;;
19167;SDS011;9716;53.114;18.040;2023-02-28T10:51:49;14.80;;;4.80;;
19167;SDS011;9716;53.114;18.040;2023-02-28T10:54:22;13.00;;;5.07;;
19167;SDS011;9716;53.114;18.040;2023-02-28T10:57:06;11.50;;;3.95;;
19167;SDS011;9716;53.114;18.040;2023-02-28T10:59:44;8.73;;;4.18;;
19167;SDS011;9716;53.114;18.040;2023-02-28T11:02:31;7.53;;;4.25;;
19167;SDS011;9716;53.114;18.040;2023-02-28T11:05:02;7.00;;;3.67;;
19167;SDS011;9716;53.114;18.040;2023-02-28T11:07:55;8.23;;;4.20;;
19167;SDS011;9716;53.114;18.040;2023-02-28T11:10:28;12.63;;;5.17;;
19167;SDS011;9716;53.114;18.040;2023-02-28T11:13:01;10.43;;;4.63;;
19167;SDS011;9716;53.114;18.040;2023-02-28T11:15:32;9.73;;;3.50;;
19167;SDS011;9716;53.114;18.040;2023-02-28T11:18:06;11.30;;;5.00;;
19167;SDS011;9716;53.114;18.040;2023-02-28T11:20:49;7.05;;;3.60;;
19167;SDS011;9716;53.114;18.040;2023-02-28T11:23:20;10.43;;;4.40;;
19167;SDS011;9716;53.114;18.040;2023-02-28T11:25:49;14.63;;;6.45;;
19167;SDS011;9716;53.114;18.040;2023-02-28T11:28:25;8.93;;;3.83;;
19167;SDS011;9716;53.114;18.040;2023-02-28T11:31:08;9.67;;;3.80;;
19167;SDS011;9716;53.114;18.040;2023-02-28T11:33:48;8.13;;;3.90;;
19167;SDS011;9716;53.114;18.040;2023-02-28T11:36:19;9.80;;;4.37;;
19167;SDS011;9716;53.114;18.040;2023-02-28T11:38:51;7.63;;;3.80;;
19167;SDS011;9716;53.114;18.040;2023-02-28T11:41:29;9.57;;;4.30;;
19167;SDS011;9716;53.114;18.040;2023-02-28T11:44:14;18.00;;;4.57;;
19167;SDS011;9716;53.114;18.040;2023-02-28T11:46:51;12.38;;;4.97;;
19167;SDS011;9716;53.114;18.040;2023-02-28T11:49:28;9.60;;;3.63;;
19167;SDS011;9716;53.114;18.040;2023-02-28T11:52:04;6.70;;;3.77;;
19167;SDS011;9716;53.114;18.040;2023-02-28T11:57:35;11.23;;;4.10;;
19167;SDS011;9716;53.114;18.040;2023-02-28T12:00:24;7.63;;;3.23;;
19167;SDS011;9716;53.114;18.040;2023-02-28T12:03:03;9.97;;;3.53;;
19167;SDS011;9716;53.114;18.040;2023-02-28T12:05:43;12.03;;;4.23;;
19167;SDS011;9716;53.114;18.040;2023-02-28T12:08:21;7.30;;;3.70;;
19167;SDS011;9716;53.114;18.040;2023-02-28T12:11:03;9.63;;;3.67;;
19167;SDS011;9716;53.114;18.040;2023-02-28T12:13:39;9.87;;;4.37;;
19167;SDS011;9716;53.114;18.040;2023-02-28T12:16:18;15.50;;;3.87;;
19167;SDS011;9716;53.114;18.040;2023-02-28T12:19:06;9.13;;;3.80;;
19167;SDS011;9716;53.114;18.040;2023-02-28T12:22:00;10.57;;;3.43;;
19167;SDS011;9716;53.114;18.040;2023-02-28T12:24:50;9.83;;;4.10;;
19167;SDS011;9716;53.114;18.040;2023-02-28T12:27:32;9.73;;;3.73;;
19167;SDS011;9716;53.114;18.040;2023-02-28T12:30:06;6.50;;;3.90;;
19167;SDS011;9716;53.114;18.040;2023-02-28T12:32:45;9.80;;;3.73;;
19167;SDS011;9716;53.114;18.040;2023-02-28T12:35:18;10.10;;;4.27;;
19167;SDS011;9716;53.114;18.040;2023-02-28T12:38:08;8.53;;;4.20;;
19167;SDS011;9716;53.114;18.040;2023-02-28T12:40:42;12.90;;;4.03;;
19167;SDS011;9716;53.114;18.040;2023-02-28T12:43:15;8.13;;;3.80;;
19167;SDS011;9716;53.114;18.040;2023-02-28T12:45:46;5.20;;;2.97;;
19167;SDS011;9716;53.114;18.040;2023-02-28T12:48:20;8.27;;;3.67;;
19167;SDS011;9716;53.114;18.040;2023-02-28T12:50:53;6.97;;;3.73;;
19167;SDS011;9716;53.114;18.040;2023-02-28T12:53:25;8.60;;;3.27;;
19167;SDS011;9716;53.114;18.040;2023-02-28T12:56:03;6.23;;;3.63;;
19167;SDS011;9716;53.114;18.040;2023-02-28T12:58:39;8.87;;;3.93;;
19167;SDS011;9716;53.114;18.040;2023-02-28T13:01:26;8.67;;;3.20;;
19167;SDS011;9716;53.114;18.040;2023-02-28T13:04:19;6.87;;;3.50;;
19167;SDS011;9716;53.114;18.040;2023-02-28T13:07:06;9.43;;;3.40;;
19167;SDS011;9716;53.114;18.040;2023-02-28T13:09:54;6.13;;;3.20;;
19167;SDS011;9716;53.114;18.040;2023-02-28T13:12:24;10.70;;;3.93;;
19167;SDS011;9716;53.114;18.040;2023-02-28T13:15:01;6.83;;;3.47;;
19167;SDS011;9716;53.114;18.040;2023-02-28T13:17:32;10.47;;;2.87;;
19167;SDS011;9716;53.114;18.040;2023-02-28T13:20:01;7.97;;;3.27;;
19167;SDS011;9716;53.114;18.040;2023-02-28T13:22:37;6.50;;;3.33;;
19167;SDS011;9716;53.114;18.040;2023-02-28T13:31:28;7.20;;;3.27;;
19167;SDS011;9716;53.114;18.040;2023-02-28T13:34:11;8.03;;;3.53;;
19167;SDS011;9716;53.114;18.040;2023-02-28T13:36:42;6.37;;;3.23;;
19167;SDS011;9716;53.114;18.040;2023-02-28T13:42:23;5.03;;;2.83;;
19167;SDS011;9716;53.114;18.040;2023-02-28T13:45:24;8.40;;;3.20;;
19167;SDS011;9716;53.114;18.040;2023-02-28T13:47:56;4.77;;;2.90;;
19167;SDS011;9716;53.114;18.040;2023-02-28T13:50:28;3.90;;;2.67;;
19167;SDS011;9716;53.114;18.040;2023-02-28T13:53:24;8.00;;;3.70;;
19167;SDS011;9716;53.114;18.040;2023-02-28T13:56:19;3.60;;;2.63;;
19167;SDS011;9716;53.114;18.040;2023-02-28T13:58:59;5.83;;;3.27;;
19167;SDS011;9716;53.114;18.040;2023-02-28T14:01:44;4.23;;;2.70;;
19167;SDS011;9716;53.114;18.040;2023-02-28T14:07:27;5.00;;;2.57;;
19167;SDS011;9716;53.114;18.040;2023-02-28T14:10:03;5.63;;;3.30;;
19167;SDS011;9716;53.114;18.040;2023-02-28T14:12:57;6.63;;;3.20;;
19167;SDS011;9716;53.114;18.040;2023-02-28T14:18:22;6.13;;;3.03;;
19167;SDS011;9716;53.114;18.040;2023-02-28T14:20:55;5.60;;;3.07;;
19167;SDS011;9716;53.114;18.040;2023-02-28T14:23:34;7.30;;;3.00;;
19167;SDS011;9716;53.114;18.040;2023-02-28T14:26:28;6.30;;;2.77;;
19167;SDS011;9716;53.114;18.040;2023-02-28T14:29:17;4.80;;;2.60;;
19167;SDS011;9716;53.114;18.040;2023-02-28T14:31:58;5.77;;;2.90;;
19167;SDS011;9716;53.114;18.040;2023-02-28T14:34:35;7.27;;;3.20;;
19167;SDS011;9716;53.114;18.040;2023-02-28T14:37:13;9.00;;;3.53;;
19167;SDS011;9716;53.114;18.040;2023-02-28T14:39:54;7.17;;;3.47;;
19167;SDS011;9716;53.114;18.040;2023-02-28T14:42:30;4.87;;;2.77;;
19167;SDS011;9716;53.114;18.040;2023-02-28T14:45:00;5.03;;;2.70;;
19167;SDS011;9716;53.114;18.040;2023-02-28T14:47:30;10.00;;;2.83;;
19167;SDS011;9716;53.114;18.040;2023-02-28T14:50:02;5.90;;;2.90;;
19167;SDS011;9716;53.114;18.040;2023-02-28T14:52:32;5.20;;;3.30;;
19167;SDS011;9716;53.114;18.040;2023-02-28T14:55:01;5.30;;;2.80;;
19167;SDS011;9716;53.114;18.040;2023-02-28T14:57:34;7.10;;;3.20;;
19167;SDS011;9716;53.114;18.040;2023-02-28T15:00:11;5.00;;;2.83;;
19167;SDS011;9716;53.114;18.040;2023-02-28T15:02:42;8.93;;;3.47;;
19167;SDS011;9716;53.114;18.040;2023-02-28T15:05:19;9.13;;;4.37;;
19167;SDS011;9716;53.114;18.040;2023-02-28T15:08:00;5.37;;;2.90;;
19167;SDS011;9716;53.114;18.040;2023-02-28T15:10:30;7.73;;;3.17;;
19167;SDS011;9716;53.114;18.040;2023-02-28T15:13:02;8.67;;;3.23;;
19167;SDS011;9716;53.114;18.040;2023-02-28T15:15:35;7.73;;;3.43;;
19167;SDS011;9716;53.114;18.040;2023-02-28T15:18:29;8.00;;;3.60;;
19167;SDS011;9716;53.114;18.040;2023-02-28T15:21:06;7.27;;;3.27;;
19167;SDS011;9716;53.114;18.040;2023-02-28T15:23:37;7.13;;;3.40;;
19167;SDS011;9716;53.114;18.040;2023-02-28T15:26:09;5.37;;;3.30;;
19167;SDS011;9716;53.114;18.040;2023-02-28T15:28:43;7.20;;;3.40;;